sensor_id;sensor_type;location;lat;lon;timestamp;pressure;altitude;pressure_sealevel;temperature;humidity
56992;BME280;42885;49.754;18.636;2023-02-08T00:01:26;100701.51;;;-1.46;100.00
56992;BME280;42885;49.754;18.636;2023-02-08T00:03:57;100701.51;;;-1.46;100.00
56992;BME280;42885;49.754;18.636;2023-02-08T00:06:28;100711.96;;;-1.40;100.00
56992;BME280;42885;49.754;18.636;2023-02-08T00:08:59;100709.50;;;-1.36;100.00
56992;BME280;42885;49.754;18.636;2023-02-08T00:11:31;100700.61;;;-1.48;100.00
56992;BME280;42885;49.754;18.636;2023-02-08T00:14:03;100709.32;;;-1.43;100.00
56992;BME280;42885;49.754;18.636;2023-02-08T00:16:34;100704.78;;;-1.52;100.00
56992;BME280;42885;49.754;18.636;2023-02-08T00:19:05;100698.23;;;-1.56;100.00
56992;BME280;42885;49.754;18.636;2023-02-08T00:21:36;100696.80;;;-1.30;100.00
56992;BME280;42885;49.754;18.636;2023-02-08T00:24:07;100697.20;;;-1.16;100.00
56992;BME280;42885;49.754;18.636;2023-02-08T00:26:38;100699.50;;;-1.09;100.00
56992;BME280;42885;49.754;18.636;2023-02-08T00:29:09;100695.31;;;-1.06;100.00
56992;BME280;42885;49.754;18.636;2023-02-08T00:31:41;100699.66;;;-1.19;100.00
56992;BME280;42885;49.754;18.636;2023-02-08T00:34:12;100697.45;;;-1.37;100.00
56992;BME280;42885;49.754;18.636;2023-02-08T00:36:43;100699.67;;;-1.35;100.00
56992;BME280;42885;49.754;18.636;2023-02-08T00:39:14;100689.73;;;-1.39;100.00
56992;BME280;42885;49.754;18.636;2023-02-08T00:41:45;100685.08;;;-1.20;100.00
56992;BME280;42885;49.754;18.636;2023-02-08T00:44:16;100690.89;;;-1.12;100.00
56992;BME280;42885;49.754;18.636;2023-02-08T00:46:47;100686.86;;;-1.18;100.00
56992;BME280;42885;49.754;18.636;2023-02-08T00:49:19;100687.48;;;-1.11;100.00
56992;BME280;42885;49.754;18.636;2023-02-08T00:51:50;100687.91;;;-1.27;100.00
56992;BME280;42885;49.754;18.636;2023-02-08T00:54:21;100685.03;;;-1.22;100.00
56992;BME280;42885;49.754;18.636;2023-02-08T00:56:52;100672.84;;;-1.13;100.00
56992;BME280;42885;49.754;18.636;2023-02-08T00:59:24;100670.30;;;-0.95;100.00
56992;BME280;42885;49.754;18.636;2023-02-08T01:01:55;100679.84;;;-1.07;100.00
56992;BME280;42885;49.754;18.636;2023-02-08T01:04:26;100681.56;;;-1.08;100.00
56992;BME280;42885;49.754;18.636;2023-02-08T01:06:57;100682.75;;;-0.95;100.00
56992;BME280;42885;49.754;18.636;2023-02-08T01:09:28;100674.92;;;-1.00;100.00
56992;BME280;42885;49.754;18.636;2023-02-08T01:11:59;100676.22;;;-0.98;100.00
56992;BME280;42885;49.754;18.636;2023-02-08T01:14:30;100680.08;;;-0.98;100.00
56992;BME280;42885;49.754;18.636;2023-02-08T01:17:01;100672.20;;;-1.04;100.00
56992;BME280;42885;49.754;18.636;2023-02-08T01:19:32;100681.48;;;-1.27;100.00
56992;BME280;42885;49.754;18.636;2023-02-08T01:22:05;100678.19;;;-1.37;100.00
56992;BME280;42885;49.754;18.636;2023-02-08T01:24:36;100672.91;;;-1.44;100.00
56992;BME280;42885;49.754;18.636;2023-02-08T01:27:07;100677.42;;;-1.19;100.00
56992;BME280;42885;49.754;18.636;2023-02-08T01:29:38;100681.83;;;-1.29;100.00
56992;BME280;42885;49.754;18.636;2023-02-08T01:32:09;100679.37;;;-1.26;100.00
56992;BME280;42885;49.754;18.636;2023-02-08T01:34:40;100684.16;;;-1.39;100.00
56992;BME280;42885;49.754;18.636;2023-02-08T01:37:12;100688.36;;;-1.26;100.00
56992;BME280;42885;49.754;18.636;2023-02-08T01:39:43;100689.22;;;-1.09;100.00
56992;BME280;42885;49.754;18.636;2023-02-08T01:42:16;100687.08;;;-1.26;100.00
56992;BME280;42885;49.754;18.636;2023-02-08T01:48:07;100693.19;;;-1.21;100.00
56992;BME280;42885;49.754;18.636;2023-02-08T01:50:53;100695.75;;;-1.21;100.00
56992;BME280;42885;49.754;18.636;2023-02-08T01:53:25;100692.45;;;-1.49;100.00
56992;BME280;42885;49.754;18.636;2023-02-08T01:55:58;100695.52;;;-1.30;100.00
56992;BME280;42885;49.754;18.636;2023-02-08T01:58:33;100692.26;;;-0.91;100.00
56992;BME280;42885;49.754;18.636;2023-02-08T02:01:04;100693.77;;;-1.31;100.00
56992;BME280;42885;49.754;18.636;2023-02-08T02:03:36;100682.67;;;-1.14;100.00
56992;BME280;42885;49.754;18.636;2023-02-08T02:06:12;100680.89;;;-1.17;100.00
56992;BME280;42885;49.754;18.636;2023-02-08T02:08:43;100689.16;;;-1.45;100.00
56992;BME280;42885;49.754;18.636;2023-02-08T02:11:13;100677.27;;;-1.07;100.00
56992;BME280;42885;49.754;18.636;2023-02-08T02:13:46;100667.79;;;-1.42;100.00
56992;BME280;42885;49.754;18.636;2023-02-08T02:16:20;100676.24;;;-1.30;100.00
56992;BME280;42885;49.754;18.636;2023-02-08T02:18:53;100679.89;;;-1.22;100.00
56992;BME280;42885;49.754;18.636;2023-02-08T02:21:39;100683.96;;;-1.14;100.00
56992;BME280;42885;49.754;18.636;2023-02-08T02:35:25;100675.30;;;-1.50;100.00
56992;BME280;42885;49.754;18.636;2023-02-08T02:38:02;100676.58;;;-1.34;100.00
56992;BME280;42885;49.754;18.636;2023-02-08T02:43:42;100678.38;;;-1.47;100.00
56992;BME280;42885;49.754;18.636;2023-02-08T02:46:38;100685.38;;;-1.42;100.00
56992;BME280;42885;49.754;18.636;2023-02-08T02:49:43;100687.28;;;-1.34;100.00
56992;BME280;42885;49.754;18.636;2023-02-08T02:52:22;100682.78;;;-1.26;100.00
56992;BME280;42885;49.754;18.636;2023-02-08T02:54:53;100687.48;;;-1.11;100.00
56992;BME280;42885;49.754;18.636;2023-02-08T02:57:29;100681.89;;;-1.12;100.00
56992;BME280;42885;49.754;18.636;2023-02-08T03:00:08;100685.34;;;-1.27;100.00
56992;BME280;42885;49.754;18.636;2023-02-08T03:02:40;100694.68;;;-1.29;100.00
56992;BME280;42885;49.754;18.636;2023-02-08T03:05:11;100694.19;;;-1.16;100.00
56992;BME280;42885;49.754;18.636;2023-02-08T03:08:11;100699.45;;;-1.11;100.00
56992;BME280;42885;49.754;18.636;2023-02-08T03:14:02;100703.42;;;-1.06;100.00
56992;BME280;42885;49.754;18.636;2023-02-08T03:19:44;100701.41;;;-1.02;100.00
56992;BME280;42885;49.754;18.636;2023-02-08T03:22:19;100713.58;;;-1.43;100.00
56992;BME280;42885;49.754;18.636;2023-02-08T03:25:05;100713.58;;;-1.43;100.00
56992;BME280;42885;49.754;18.636;2023-02-08T03:27:33;100698.81;;;-1.50;100.00
56992;BME280;42885;49.754;18.636;2023-02-08T03:30:14;100717.68;;;-1.50;100.00
56992;BME280;42885;49.754;18.636;2023-02-08T03:32:54;100710.70;;;-1.54;100.00
56992;BME280;42885;49.754;18.636;2023-02-08T03:35:39;100715.61;;;-1.31;100.00
56992;BME280;42885;49.754;18.636;2023-02-08T03:38:14;100712.56;;;-1.18;100.00
56992;BME280;42885;49.754;18.636;2023-02-08T03:40:48;100709.99;;;-1.18;100.00
56992;BME280;42885;49.754;18.636;2023-02-08T03:43:33;100717.81;;;-0.79;100.00
56992;BME280;42885;49.754;18.636;2023-02-08T03:46:08;100718.73;;;-1.11;100.00
56992;BME280;42885;49.754;18.636;2023-02-08T03:48:41;100712.84;;;-1.23;100.00
56992;BME280;42885;49.754;18.636;2023-02-08T03:51:15;100714.83;;;-1.29;100.00
56992;BME280;42885;49.754;18.636;2023-02-08T03:53:47;100709.00;;;-1.07;100.00
56992;BME280;42885;49.754;18.636;2023-02-08T03:59:20;100715.53;;;-1.18;100.00
56992;BME280;42885;49.754;18.636;2023-02-08T04:01:56;100712.89;;;-1.21;100.00
56992;BME280;42885;49.754;18.636;2023-02-08T04:04:29;100714.04;;;-1.10;100.00
56992;BME280;42885;49.754;18.636;2023-02-08T04:07:01;100717.20;;;-1.20;100.00
56992;BME280;42885;49.754;18.636;2023-02-08T04:09:33;100713.22;;;-1.25;100.00
56992;BME280;42885;49.754;18.636;2023-02-08T04:12:04;100707.09;;;-1.14;100.00
56992;BME280;42885;49.754;18.636;2023-02-08T04:14:35;100710.35;;;-1.04;100.00
56992;BME280;42885;49.754;18.636;2023-02-08T04:17:06;100707.83;;;-1.02;100.00
56992;BME280;42885;49.754;18.636;2023-02-08T04:19:38;100712.20;;;-0.98;100.00
56992;BME280;42885;49.754;18.636;2023-02-08T04:22:09;100710.42;;;-1.01;100.00
56992;BME280;42885;49.754;18.636;2023-02-08T04:24:40;100710.75;;;-1.04;100.00
56992;BME280;42885;49.754;18.636;2023-02-08T04:27:11;100708.16;;;-1.22;100.00
56992;BME280;42885;49.754;18.636;2023-02-08T04:29:42;100711.78;;;-1.15;100.00
56992;BME280;42885;49.754;18.636;2023-02-08T04:32:12;100717.02;;;-1.27;100.00
56992;BME280;42885;49.754;18.636;2023-02-08T04:34:43;100711.48;;;-1.26;100.00
56992;BME280;42885;49.754;18.636;2023-02-08T04:37:14;100704.11;;;-1.30;100.00
56992;BME280;42885;49.754;18.636;2023-02-08T04:39:45;100705.52;;;-1.41;100.00
56992;BME280;42885;49.754;18.636;2023-02-08T04:42:16;100706.05;;;-1.37;100.00
56992;BME280;42885;49.754;18.636;2023-02-08T04:44:47;100702.78;;;-1.15;100.00
56992;BME280;42885;49.754;18.636;2023-02-08T04:47:18;100703.64;;;-1.15;100.00
56992;BME280;42885;49.754;18.636;2023-02-08T04:49:49;100701.71;;;-1.23;100.00
56992;BME280;42885;49.754;18.636;2023-02-08T04:52:20;100698.69;;;-1.25;100.00
56992;BME280;42885;49.754;18.636;2023-02-08T04:54:51;100703.06;;;-1.20;100.00
56992;BME280;42885;49.754;18.636;2023-02-08T04:57:22;100693.19;;;-1.21;100.00
56992;BME280;42885;49.754;18.636;2023-02-08T04:59:53;100697.14;;;-1.18;100.00
56992;BME280;42885;49.754;18.636;2023-02-08T05:02:24;100694.45;;;-1.22;100.00
56992;BME280;42885;49.754;18.636;2023-02-08T05:04:55;100687.39;;;-1.14;100.00
56992;BME280;42885;49.754;18.636;2023-02-08T05:07:26;100697.17;;;-1.00;100.00
56992;BME280;42885;49.754;18.636;2023-02-08T05:09:57;100703.88;;;-0.89;100.00
56992;BME280;42885;49.754;18.636;2023-02-08T05:12:28;100705.96;;;-1.24;100.00
56992;BME280;42885;49.754;18.636;2023-02-08T05:14:59;100713.30;;;-1.22;100.00
56992;BME280;42885;49.754;18.636;2023-02-08T05:17:30;100707.91;;;-1.31;100.00
56992;BME280;42885;49.754;18.636;2023-02-08T05:20:01;100714.50;;;-1.25;100.00
56992;BME280;42885;49.754;18.636;2023-02-08T05:22:33;100710.15;;;-1.28;100.00
56992;BME280;42885;49.754;18.636;2023-02-08T05:25:04;100714.30;;;-1.17;100.00
56992;BME280;42885;49.754;18.636;2023-02-08T05:27:36;100706.66;;;-1.14;100.00
56992;BME280;42885;49.754;18.636;2023-02-08T05:30:08;100718.81;;;-1.24;100.00
56992;BME280;42885;49.754;18.636;2023-02-08T05:32:39;100718.16;;;-1.33;100.00
56992;BME280;42885;49.754;18.636;2023-02-08T05:35:10;100721.91;;;-1.36;100.00
56992;BME280;42885;49.754;18.636;2023-02-08T05:37:41;100730.30;;;-1.27;100.00
56992;BME280;42885;49.754;18.636;2023-02-08T05:40:12;100733.31;;;-1.10;100.00
56992;BME280;42885;49.754;18.636;2023-02-08T05:42:43;100734.68;;;-1.23;100.00
56992;BME280;42885;49.754;18.636;2023-02-08T05:45:14;100725.41;;;-1.18;100.00
56992;BME280;42885;49.754;18.636;2023-02-08T05:48:18;100727.09;;;-1.18;100.00
56992;BME280;42885;49.754;18.636;2023-02-08T05:50:49;100732.31;;;-1.31;100.00
56992;BME280;42885;49.754;18.636;2023-02-08T05:53:20;100732.41;;;-1.12;100.00
56992;BME280;42885;49.754;18.636;2023-02-08T05:55:51;100723.03;;;-1.10;100.00
56992;BME280;42885;49.754;18.636;2023-02-08T05:58:23;100733.06;;;-1.19;100.00
56992;BME280;42885;49.754;18.636;2023-02-08T06:00:54;100726.47;;;-1.26;100.00
56992;BME280;42885;49.754;18.636;2023-02-08T06:03:26;100726.47;;;-1.26;100.00
56992;BME280;42885;49.754;18.636;2023-02-08T06:05:59;100739.05;;;-1.20;100.00
56992;BME280;42885;49.754;18.636;2023-02-08T06:08:30;100739.03;;;-1.04;100.00
56992;BME280;42885;49.754;18.636;2023-02-08T06:11:02;100739.84;;;-1.07;100.00
56992;BME280;42885;49.754;18.636;2023-02-08T06:13:33;100743.52;;;-1.13;100.00
56992;BME280;42885;49.754;18.636;2023-02-08T06:16:04;100747.51;;;-1.25;100.00
56992;BME280;42885;49.754;18.636;2023-02-08T06:18:35;100745.38;;;-1.07;100.00
56992;BME280;42885;49.754;18.636;2023-02-08T06:21:06;100754.58;;;-1.16;100.00
56992;BME280;42885;49.754;18.636;2023-02-08T06:23:37;100746.55;;;-1.12;100.00
56992;BME280;42885;49.754;18.636;2023-02-08T06:26:08;100748.13;;;-1.01;100.00
56992;BME280;42885;49.754;18.636;2023-02-08T06:28:39;100743.20;;;-1.09;100.00
56992;BME280;42885;49.754;18.636;2023-02-08T06:31:10;100758.97;;;-1.28;100.00
56992;BME280;42885;49.754;18.636;2023-02-08T06:33:41;100762.41;;;-1.58;100.00
56992;BME280;42885;49.754;18.636;2023-02-08T06:36:12;100768.16;;;-1.36;100.00
56992;BME280;42885;49.754;18.636;2023-02-08T06:38:43;100765.64;;;-1.34;100.00
56992;BME280;42885;49.754;18.636;2023-02-08T06:41:14;100768.66;;;-1.33;100.00
56992;BME280;42885;49.754;18.636;2023-02-08T06:43:45;100774.81;;;-1.28;100.00
56992;BME280;42885;49.754;18.636;2023-02-08T06:46:16;100759.90;;;-1.09;100.00
56992;BME280;42885;49.754;18.636;2023-02-08T06:48:47;100763.45;;;-1.04;100.00
56992;BME280;42885;49.754;18.636;2023-02-08T06:51:18;100764.28;;;-1.05;100.00
56992;BME280;42885;49.754;18.636;2023-02-08T06:53:49;100767.36;;;-1.03;100.00
56992;BME280;42885;49.754;18.636;2023-02-08T06:56:20;100767.11;;;-1.28;100.00
56992;BME280;42885;49.754;18.636;2023-02-08T06:58:51;100779.66;;;-1.37;100.00
56992;BME280;42885;49.754;18.636;2023-02-08T07:01:22;100778.42;;;-1.21;100.00
56992;BME280;42885;49.754;18.636;2023-02-08T07:03:53;100781.17;;;-1.15;100.00
56992;BME280;42885;49.754;18.636;2023-02-08T07:06:25;100773.93;;;-1.13;100.00
56992;BME280;42885;49.754;18.636;2023-02-08T07:08:56;100783.18;;;-1.19;100.00
56992;BME280;42885;49.754;18.636;2023-02-08T07:11:26;100781.42;;;-1.06;100.00
56992;BME280;42885;49.754;18.636;2023-02-08T07:13:57;100788.75;;;-1.20;100.00
56992;BME280;42885;49.754;18.636;2023-02-08T07:16:28;100791.25;;;-1.07;100.00
56992;BME280;42885;49.754;18.636;2023-02-08T07:18:59;100790.95;;;-1.32;100.00
56992;BME280;42885;49.754;18.636;2023-02-08T07:21:30;100784.27;;;-1.27;100.00
56992;BME280;42885;49.754;18.636;2023-02-08T07:24:01;100784.20;;;-1.29;100.00
56992;BME280;42885;49.754;18.636;2023-02-08T07:26:32;100787.54;;;-1.17;100.00
56992;BME280;42885;49.754;18.636;2023-02-08T07:29:04;100775.58;;;-1.16;100.00
56992;BME280;42885;49.754;18.636;2023-02-08T07:31:35;100787.73;;;-1.09;100.00
56992;BME280;42885;49.754;18.636;2023-02-08T07:34:06;100790.29;;;-1.11;100.00
56992;BME280;42885;49.754;18.636;2023-02-08T07:36:37;100792.16;;;-1.05;100.00
56992;BME280;42885;49.754;18.636;2023-02-08T07:39:08;100793.94;;;-1.02;100.00
56992;BME280;42885;49.754;18.636;2023-02-08T07:41:39;100796.63;;;-0.81;100.00
56992;BME280;42885;49.754;18.636;2023-02-08T07:44:10;100798.26;;;-0.69;100.00
56992;BME280;42885;49.754;18.636;2023-02-08T07:46:42;100800.28;;;-0.57;100.00
56992;BME280;42885;49.754;18.636;2023-02-08T07:49:12;100794.69;;;-0.23;100.00
56992;BME280;42885;49.754;18.636;2023-02-08T07:51:43;100791.91;;;-0.31;100.00
56992;BME280;42885;49.754;18.636;2023-02-08T07:54:14;100804.60;;;-0.21;100.00
56992;BME280;42885;49.754;18.636;2023-02-08T07:56:45;100805.59;;;-0.33;100.00
56992;BME280;42885;49.754;18.636;2023-02-08T07:59:17;100807.85;;;-0.28;100.00
56992;BME280;42885;49.754;18.636;2023-02-08T08:01:48;100815.34;;;-0.37;100.00
56992;BME280;42885;49.754;18.636;2023-02-08T08:04:19;100810.20;;;-0.37;100.00
56992;BME280;42885;49.754;18.636;2023-02-08T08:06:50;100815.23;;;-0.24;100.00
56992;BME280;42885;49.754;18.636;2023-02-08T08:09:22;100821.44;;;-0.16;100.00
56992;BME280;42885;49.754;18.636;2023-02-08T08:11:53;100823.86;;;0.13;100.00
56992;BME280;42885;49.754;18.636;2023-02-08T08:14:24;100812.72;;;0.14;100.00
56992;BME280;42885;49.754;18.636;2023-02-08T08:16:55;100824.52;;;0.23;100.00
56992;BME280;42885;49.754;18.636;2023-02-08T08:19:26;100829.87;;;0.33;100.00
56992;BME280;42885;49.754;18.636;2023-02-08T08:21:57;100828.53;;;0.70;100.00
56992;BME280;42885;49.754;18.636;2023-02-08T08:24:28;100825.06;;;0.67;100.00
56992;BME280;42885;49.754;18.636;2023-02-08T08:27:02;100836.85;;;0.77;100.00
56992;BME280;42885;49.754;18.636;2023-02-08T08:29:35;100826.16;;;0.58;100.00
56992;BME280;42885;49.754;18.636;2023-02-08T08:32:07;100835.17;;;0.58;100.00
56992;BME280;42885;49.754;18.636;2023-02-08T08:34:37;100827.13;;;1.06;100.00
56992;BME280;42885;49.754;18.636;2023-02-08T08:37:09;100826.50;;;0.96;100.00
56992;BME280;42885;49.754;18.636;2023-02-08T08:39:40;100833.81;;;1.41;100.00
56992;BME280;42885;49.754;18.636;2023-02-08T08:42:12;100835.06;;;1.40;100.00
56992;BME280;42885;49.754;18.636;2023-02-08T08:44:43;100836.92;;;1.48;100.00
56992;BME280;42885;49.754;18.636;2023-02-08T08:47:14;100839.34;;;1.37;100.00
56992;BME280;42885;49.754;18.636;2023-02-08T08:49:46;100841.01;;;1.13;100.00
56992;BME280;42885;49.754;18.636;2023-02-08T08:52:17;100834.73;;;1.22;100.00
56992;BME280;42885;49.754;18.636;2023-02-08T08:54:48;100841.48;;;1.38;100.00
56992;BME280;42885;49.754;18.636;2023-02-08T08:57:19;100846.41;;;1.48;100.00
56992;BME280;42885;49.754;18.636;2023-02-08T08:59:50;100840.31;;;1.70;100.00
56992;BME280;42885;49.754;18.636;2023-02-08T09:02:21;100838.58;;;1.69;100.00
56992;BME280;42885;49.754;18.636;2023-02-08T09:04:52;100837.28;;;1.67;100.00
56992;BME280;42885;49.754;18.636;2023-02-08T09:07:23;100831.39;;;2.03;100.00
56992;BME280;42885;49.754;18.636;2023-02-08T09:09:54;100826.96;;;1.94;100.00
56992;BME280;42885;49.754;18.636;2023-02-08T09:12:25;100837.41;;;2.02;100.00
56992;BME280;42885;49.754;18.636;2023-02-08T09:14:56;100837.03;;;1.78;100.00
56992;BME280;42885;49.754;18.636;2023-02-08T09:17:27;100837.03;;;2.32;100.00
56992;BME280;42885;49.754;18.636;2023-02-08T09:19:58;100833.31;;;2.45;100.00
56992;BME280;42885;49.754;18.636;2023-02-08T09:22:29;100837.23;;;2.46;100.00
56992;BME280;42885;49.754;18.636;2023-02-08T09:25:00;100838.19;;;2.25;100.00
56992;BME280;42885;49.754;18.636;2023-02-08T09:27:31;100840.44;;;2.30;100.00
56992;BME280;42885;49.754;18.636;2023-02-08T09:30:02;100842.20;;;2.34;100.00
56992;BME280;42885;49.754;18.636;2023-02-08T09:32:34;100837.58;;;2.13;99.85
56992;BME280;42885;49.754;18.636;2023-02-08T09:35:06;100844.78;;;2.32;99.21
56992;BME280;42885;49.754;18.636;2023-02-08T09:37:37;100841.16;;;2.53;99.63
56992;BME280;42885;49.754;18.636;2023-02-08T09:40:20;100840.19;;;2.44;95.74
56992;BME280;42885;49.754;18.636;2023-02-08T09:42:57;100847.44;;;2.37;97.18
56992;BME280;42885;49.754;18.636;2023-02-08T09:50:58;100849.23;;;2.74;100.00
56992;BME280;42885;49.754;18.636;2023-02-08T09:53:30;100851.94;;;2.82;100.00
56992;BME280;42885;49.754;18.636;2023-02-08T09:56:04;100850.45;;;3.03;100.00
56992;BME280;42885;49.754;18.636;2023-02-08T09:58:44;100845.98;;;2.91;100.00
56992;BME280;42885;49.754;18.636;2023-02-08T10:01:23;100854.55;;;3.20;94.46
56992;BME280;42885;49.754;18.636;2023-02-08T10:04:24;100836.16;;;3.83;96.22
56992;BME280;42885;49.754;18.636;2023-02-08T10:06:55;100846.48;;;3.35;91.62
56992;BME280;42885;49.754;18.636;2023-02-08T10:09:27;100849.12;;;3.39;84.81
56992;BME280;42885;49.754;18.636;2023-02-08T10:12:21;100846.56;;;3.03;85.27
56992;BME280;42885;49.754;18.636;2023-02-08T10:37:24;100842.41;;;3.16;78.54
56992;BME280;42885;49.754;18.636;2023-02-08T10:39:53;100833.55;;;3.33;82.15
56992;BME280;42885;49.754;18.636;2023-02-08T10:42:27;100829.73;;;3.87;75.65
56992;BME280;42885;49.754;18.636;2023-02-08T10:47:54;100832.72;;;3.83;77.80
56992;BME280;42885;49.754;18.636;2023-02-08T10:53:47;100824.73;;;3.17;78.02
56992;BME280;42885;49.754;18.636;2023-02-08T10:56:30;100826.28;;;3.02;80.72
56992;BME280;42885;49.754;18.636;2023-02-08T10:58:58;100813.76;;;3.40;79.47
56992;BME280;42885;49.754;18.636;2023-02-08T11:01:30;100811.91;;;3.75;73.74
56992;BME280;42885;49.754;18.636;2023-02-08T11:04:08;100812.48;;;3.43;74.02
56992;BME280;42885;49.754;18.636;2023-02-08T11:06:41;100811.34;;;4.12;74.23
56992;BME280;42885;49.754;18.636;2023-02-08T11:09:27;100811.05;;;4.33;73.15
56992;BME280;42885;49.754;18.636;2023-02-08T11:12:00;100819.69;;;5.33;70.48
56992;BME280;42885;49.754;18.636;2023-02-08T11:14:39;100804.34;;;8.61;54.87
56992;BME280;42885;49.754;18.636;2023-02-08T11:17:27;100786.44;;;9.33;48.14
56992;BME280;42885;49.754;18.636;2023-02-08T11:19:59;100780.59;;;9.98;45.93
56992;BME280;42885;49.754;18.636;2023-02-08T11:22:31;100773.38;;;9.88;43.28
56992;BME280;42885;49.754;18.636;2023-02-08T11:25:05;100769.20;;;10.02;42.92
56992;BME280;42885;49.754;18.636;2023-02-08T11:27:38;100772.34;;;10.88;42.92
56992;BME280;42885;49.754;18.636;2023-02-08T11:30:19;100790.27;;;9.39;44.33
56992;BME280;42885;49.754;18.636;2023-02-08T11:33:12;100780.02;;;9.82;41.32
56992;BME280;42885;49.754;18.636;2023-02-08T11:35:39;100779.77;;;9.96;40.80
56992;BME280;42885;49.754;18.636;2023-02-08T11:38:16;100779.71;;;10.48;40.47
56992;BME280;42885;49.754;18.636;2023-02-08T11:40:45;100785.44;;;11.29;40.77
56992;BME280;42885;49.754;18.636;2023-02-08T11:43:33;100777.88;;;10.04;42.93
56992;BME280;42885;49.754;18.636;2023-02-08T11:46:05;100780.41;;;10.79;42.47
56992;BME280;42885;49.754;18.636;2023-02-08T11:48:44;100770.25;;;10.16;42.21
56992;BME280;42885;49.754;18.636;2023-02-08T11:51:31;100770.34;;;10.11;41.87
56992;BME280;42885;49.754;18.636;2023-02-08T11:54:09;100776.20;;;10.70;39.37
56992;BME280;42885;49.754;18.636;2023-02-08T11:56:41;100766.75;;;11.23;40.59
56992;BME280;42885;49.754;18.636;2023-02-08T11:59:20;100760.02;;;11.86;38.47
56992;BME280;42885;49.754;18.636;2023-02-08T12:01:52;100764.72;;;12.24;38.18
56992;BME280;42885;49.754;18.636;2023-02-08T12:04:23;100764.77;;;12.69;37.96
56992;BME280;42885;49.754;18.636;2023-02-08T12:07:18;100762.13;;;11.71;37.48
56992;BME280;42885;49.754;18.636;2023-02-08T12:20:45;100757.04;;;11.28;38.14
56992;BME280;42885;49.754;18.636;2023-02-08T12:29:19;100757.69;;;12.09;36.77
56992;BME280;42885;49.754;18.636;2023-02-08T12:31:59;100756.13;;;12.01;35.04
56992;BME280;42885;49.754;18.636;2023-02-08T12:54:45;100733.62;;;11.01;37.23
56992;BME280;42885;49.754;18.636;2023-02-08T12:57:18;100737.29;;;10.28;38.49
56992;BME280;42885;49.754;18.636;2023-02-08T12:59:56;100725.57;;;11.98;36.05
56992;BME280;42885;49.754;18.636;2023-02-08T13:02:31;100721.95;;;11.87;35.90
56992;BME280;42885;49.754;18.636;2023-02-08T13:05:05;100715.55;;;12.76;35.46
56992;BME280;42885;49.754;18.636;2023-02-08T13:07:41;100717.09;;;12.53;35.10
56992;BME280;42885;49.754;18.636;2023-02-08T13:10:19;100720.48;;;11.04;35.99
56992;BME280;42885;49.754;18.636;2023-02-08T13:13:03;100713.96;;;11.57;36.60
56992;BME280;42885;49.754;18.636;2023-02-08T13:15:38;100712.59;;;11.42;36.78
56992;BME280;42885;49.754;18.636;2023-02-08T13:18:24;100711.19;;;9.80;38.41
56992;BME280;42885;49.754;18.636;2023-02-08T13:21:02;100724.26;;;8.26;40.85
56992;BME280;42885;49.754;18.636;2023-02-08T13:23:35;100709.20;;;9.41;40.68
56992;BME280;42885;49.754;18.636;2023-02-08T13:26:12;100713.94;;;8.54;39.55
56992;BME280;42885;49.754;18.636;2023-02-08T13:28:37;100707.62;;;9.03;39.77
56992;BME280;42885;49.754;18.636;2023-02-08T13:31:21;100716.77;;;7.92;42.35
56992;BME280;42885;49.754;18.636;2023-02-08T13:34:11;100714.60;;;8.72;41.99
56992;BME280;42885;49.754;18.636;2023-02-08T13:36:48;100710.09;;;10.14;39.43
56992;BME280;42885;49.754;18.636;2023-02-08T13:39:36;100695.77;;;10.77;36.68
56992;BME280;42885;49.754;18.636;2023-02-08T13:42:28;100703.75;;;10.26;37.08
56992;BME280;42885;49.754;18.636;2023-02-08T13:45:00;100702.95;;;9.51;38.04
56992;BME280;42885;49.754;18.636;2023-02-08T13:47:37;100695.53;;;10.87;35.21
56992;BME280;42885;49.754;18.636;2023-02-08T13:52:49;100691.32;;;11.18;36.24
56992;BME280;42885;49.754;18.636;2023-02-08T13:55:43;100690.56;;;11.13;36.66
56992;BME280;42885;49.754;18.636;2023-02-08T14:01:18;100682.49;;;11.57;35.72
56992;BME280;42885;49.754;18.636;2023-02-08T14:06:48;100696.45;;;9.22;39.63
56992;BME280;42885;49.754;18.636;2023-02-08T14:12:26;100696.78;;;7.48;44.05
56992;BME280;42885;49.754;18.636;2023-02-08T14:17:54;100702.83;;;5.29;50.55
56992;BME280;42885;49.754;18.636;2023-02-08T14:23:25;100704.53;;;5.05;52.44
56992;BME280;42885;49.754;18.636;2023-02-08T14:25:53;100707.50;;;4.84;53.86
56992;BME280;42885;49.754;18.636;2023-02-08T14:31:05;100718.20;;;4.45;56.27
56992;BME280;42885;49.754;18.636;2023-02-08T14:33:40;100712.95;;;4.32;57.61
56992;BME280;42885;49.754;18.636;2023-02-08T14:36:34;100711.41;;;3.84;58.24
56992;BME280;42885;49.754;18.636;2023-02-08T14:39:21;100711.41;;;3.84;58.24
56992;BME280;42885;49.754;18.636;2023-02-08T14:41:52;100711.34;;;3.75;60.71
56992;BME280;42885;49.754;18.636;2023-02-08T14:50:00;100711.45;;;3.32;64.16
56992;BME280;42885;49.754;18.636;2023-02-08T14:52:30;100712.77;;;3.95;61.80
56992;BME280;42885;49.754;18.636;2023-02-08T14:55:08;100710.95;;;3.84;67.90
56992;BME280;42885;49.754;18.636;2023-02-08T14:57:41;100708.92;;;3.43;64.53
56992;BME280;42885;49.754;18.636;2023-02-08T15:00:21;100709.17;;;3.21;66.00
56992;BME280;42885;49.754;18.636;2023-02-08T15:02:56;100713.41;;;3.12;66.64
56992;BME280;42885;49.754;18.636;2023-02-08T15:05:34;100714.11;;;2.96;67.73
56992;BME280;42885;49.754;18.636;2023-02-08T15:08:04;100709.00;;;3.52;74.80
56992;BME280;42885;49.754;18.636;2023-02-08T15:10:39;100714.44;;;2.84;68.80
56992;BME280;42885;49.754;18.636;2023-02-08T15:13:16;100717.65;;;2.65;70.13